sensor_id;sensor_type;location;lat;lon;timestamp;P1;durP1;ratioP1;P2;durP2;ratioP2
11064;SDS011;5585;52.530;7.320;2023-05-07T00:02:04;12.15;;;10.68;;
11064;SDS011;5585;52.530;7.320;2023-05-07T00:04:31;12.18;;;10.95;;
11064;SDS011;5585;52.530;7.320;2023-05-07T00:07:01;12.52;;;11.23;;
11064;SDS011;5585;52.530;7.320;2023-05-07T00:09:28;12.02;;;10.80;;
11064;SDS011;5585;52.530;7.320;2023-05-07T00:11:54;11.18;;;9.98;;
11064;SDS011;5585;52.530;7.320;2023-05-07T00:14:21;12.65;;;11.32;;
11064;SDS011;5585;52.530;7.320;2023-05-07T00:16:47;11.95;;;10.77;;
11064;SDS011;5585;52.530;7.320;2023-05-07T00:19:15;11.80;;;10.40;;
11064;SDS011;5585;52.530;7.320;2023-05-07T00:21:42;13.10;;;11.00;;
11064;SDS011;5585;52.530;7.320;2023-05-07T00:24:08;10.90;;;9.88;;
11064;SDS011;5585;52.530;7.320;2023-05-07T00:26:35;11.55;;;10.45;;
11064;SDS011;5585;52.530;7.320;2023-05-07T00:29:01;12.73;;;11.00;;
11064;SDS011;5585;52.530;7.320;2023-05-07T00:31:28;12.60;;;11.30;;
11064;SDS011;5585;52.530;7.320;2023-05-07T00:33:54;11.45;;;10.27;;
11064;SDS011;5585;52.530;7.320;2023-05-07T00:36:22;11.77;;;10.57;;
11064;SDS011;5585;52.530;7.320;2023-05-07T00:38:48;12.68;;;11.38;;
11064;SDS011;5585;52.530;7.320;2023-05-07T00:41:15;12.70;;;11.43;;
11064;SDS011;5585;52.530;7.320;2023-05-07T00:43:41;11.70;;;10.50;;
11064;SDS011;5585;52.530;7.320;2023-05-07T00:46:08;12.30;;;10.88;;
11064;SDS011;5585;52.530;7.320;2023-05-07T00:48:35;10.95;;;9.85;;
11064;SDS011;5585;52.530;7.320;2023-05-07T00:51:01;12.02;;;10.73;;
11064;SDS011;5585;52.530;7.320;2023-05-07T00:53:29;12.32;;;10.55;;
11064;SDS011;5585;52.530;7.320;2023-05-07T00:55:56;12.95;;;11.65;;
11064;SDS011;5585;52.530;7.320;2023-05-07T00:58:23;13.05;;;11.75;;
11064;SDS011;5585;52.530;7.320;2023-05-07T01:00:49;11.80;;;10.70;;
11064;SDS011;5585;52.530;7.320;2023-05-07T01:03:16;11.80;;;10.60;;
11064;SDS011;5585;52.530;7.320;2023-05-07T01:05:43;11.20;;;10.10;;
11064;SDS011;5585;52.530;7.320;2023-05-07T01:08:12;11.73;;;10.55;;
11064;SDS011;5585;52.530;7.320;2023-05-07T01:10:40;13.88;;;12.38;;
11064;SDS011;5585;52.530;7.320;2023-05-07T01:13:08;13.50;;;12.10;;
11064;SDS011;5585;52.530;7.320;2023-05-07T01:15:35;15.77;;;11.93;;
11064;SDS011;5585;52.530;7.320;2023-05-07T01:18:01;14.13;;;11.88;;
11064;SDS011;5585;52.530;7.320;2023-05-07T01:20:28;13.27;;;11.88;;
11064;SDS011;5585;52.530;7.320;2023-05-07T01:22:56;14.57;;;12.55;;
11064;SDS011;5585;52.530;7.320;2023-05-07T01:25:23;12.52;;;11.23;;
11064;SDS011;5585;52.530;7.320;2023-05-07T01:27:50;13.63;;;12.02;;
11064;SDS011;5585;52.530;7.320;2023-05-07T01:30:17;13.23;;;11.93;;
11064;SDS011;5585;52.530;7.320;2023-05-07T01:32:45;13.77;;;12.35;;
11064;SDS011;5585;52.530;7.320;2023-05-07T01:35:15;14.48;;;12.70;;
11064;SDS011;5585;52.530;7.320;2023-05-07T01:37:43;15.00;;;13.15;;
11064;SDS011;5585;52.530;7.320;2023-05-07T01:40:11;14.30;;;12.70;;
11064;SDS011;5585;52.530;7.320;2023-05-07T01:42:37;15.13;;;12.95;;
11064;SDS011;5585;52.530;7.320;2023-05-07T01:45:05;13.48;;;12.10;;
11064;SDS011;5585;52.530;7.320;2023-05-07T01:47:31;15.57;;;13.93;;
11064;SDS011;5585;52.530;7.320;2023-05-07T01:49:58;14.82;;;13.15;;
11064;SDS011;5585;52.530;7.320;2023-05-07T01:52:25;16.45;;;12.82;;
11064;SDS011;5585;52.530;7.320;2023-05-07T01:54:53;16.00;;;14.15;;
11064;SDS011;5585;52.530;7.320;2023-05-07T01:57:21;15.68;;;14.05;;
11064;SDS011;5585;52.530;7.320;2023-05-07T01:59:48;16.13;;;13.67;;
11064;SDS011;5585;52.530;7.320;2023-05-07T02:02:14;16.75;;;14.82;;
11064;SDS011;5585;52.530;7.320;2023-05-07T02:04:40;16.45;;;14.75;;
11064;SDS011;5585;52.530;7.320;2023-05-07T02:07:07;16.40;;;14.68;;
11064;SDS011;5585;52.530;7.320;2023-05-07T02:09:33;15.80;;;14.20;;
11064;SDS011;5585;52.530;7.320;2023-05-07T02:12:00;16.33;;;14.38;;
11064;SDS011;5585;52.530;7.320;2023-05-07T02:14:28;16.85;;;14.35;;
11064;SDS011;5585;52.530;7.320;2023-05-07T02:16:54;17.73;;;13.68;;
11064;SDS011;5585;52.530;7.320;2023-05-07T02:19:21;17.60;;;15.65;;
11064;SDS011;5585;52.530;7.320;2023-05-07T02:21:47;16.70;;;14.60;;
11064;SDS011;5585;52.530;7.320;2023-05-07T02:24:14;18.30;;;15.67;;
11064;SDS011;5585;52.530;7.320;2023-05-07T02:26:40;16.93;;;15.13;;
11064;SDS011;5585;52.530;7.320;2023-05-07T02:29:07;20.88;;;15.80;;
11064;SDS011;5585;52.530;7.320;2023-05-07T02:31:34;18.53;;;16.23;;
11064;SDS011;5585;52.530;7.320;2023-05-07T02:34:01;21.67;;;18.40;;
11064;SDS011;5585;52.530;7.320;2023-05-07T02:36:28;18.65;;;16.65;;
11064;SDS011;5585;52.530;7.320;2023-05-07T02:38:54;21.70;;;18.50;;
11064;SDS011;5585;52.530;7.320;2023-05-07T02:41:21;20.25;;;16.90;;
11064;SDS011;5585;52.530;7.320;2023-05-07T02:43:47;19.73;;;17.57;;
11064;SDS011;5585;52.530;7.320;2023-05-07T02:46:14;19.10;;;16.88;;
11064;SDS011;5585;52.530;7.320;2023-05-07T02:48:42;21.20;;;18.47;;
11064;SDS011;5585;52.530;7.320;2023-05-07T02:51:08;22.80;;;18.80;;
11064;SDS011;5585;52.530;7.320;2023-05-07T02:53:35;20.13;;;17.73;;
11064;SDS011;5585;52.530;7.320;2023-05-07T02:56:02;22.20;;;19.00;;
11064;SDS011;5585;52.530;7.320;2023-05-07T02:58:28;22.40;;;18.87;;
11064;SDS011;5585;52.530;7.320;2023-05-07T03:00:55;20.80;;;18.33;;
11064;SDS011;5585;52.530;7.320;2023-05-07T03:03:21;22.63;;;19.67;;
11064;SDS011;5585;52.530;7.320;2023-05-07T03:05:49;22.83;;;19.63;;
11064;SDS011;5585;52.530;7.320;2023-05-07T03:08:16;21.40;;;18.27;;
11064;SDS011;5585;52.530;7.320;2023-05-07T03:10:42;20.65;;;18.25;;
11064;SDS011;5585;52.530;7.320;2023-05-07T03:13:09;20.65;;;17.95;;
11064;SDS011;5585;52.530;7.320;2023-05-07T03:15:35;20.98;;;18.75;;
11064;SDS011;5585;52.530;7.320;2023-05-07T03:18:02;19.55;;;17.40;;
11064;SDS011;5585;52.530;7.320;2023-05-07T03:20:28;20.95;;;18.17;;
11064;SDS011;5585;52.530;7.320;2023-05-07T03:22:56;20.73;;;18.23;;
11064;SDS011;5585;52.530;7.320;2023-05-07T03:25:23;20.00;;;17.67;;
11064;SDS011;5585;52.530;7.320;2023-05-07T03:27:49;22.20;;;19.05;;
11064;SDS011;5585;52.530;7.320;2023-05-07T03:30:16;23.42;;;19.63;;
11064;SDS011;5585;52.530;7.320;2023-05-07T03:32:42;20.80;;;17.63;;
11064;SDS011;5585;52.530;7.320;2023-05-07T03:35:09;21.13;;;18.85;;
11064;SDS011;5585;52.530;7.320;2023-05-07T03:37:35;24.45;;;20.08;;
11064;SDS011;5585;52.530;7.320;2023-05-07T03:40:03;21.83;;;17.95;;
11064;SDS011;5585;52.530;7.320;2023-05-07T03:42:30;21.75;;;18.17;;
11064;SDS011;5585;52.530;7.320;2023-05-07T03:44:56;20.30;;;17.52;;
11064;SDS011;5585;52.530;7.320;2023-05-07T03:47:23;19.17;;;16.90;;
11064;SDS011;5585;52.530;7.320;2023-05-07T03:49:49;20.37;;;17.40;;
11064;SDS011;5585;52.530;7.320;2023-05-07T03:52:18;18.75;;;16.55;;
11064;SDS011;5585;52.530;7.320;2023-05-07T03:54:47;20.63;;;18.17;;
11064;SDS011;5585;52.530;7.320;2023-05-07T03:57:15;21.63;;;19.33;;
11064;SDS011;5585;52.530;7.320;2023-05-07T03:59:41;20.88;;;17.20;;
11064;SDS011;5585;52.530;7.320;2023-05-07T04:02:08;19.80;;;17.70;;
11064;SDS011;5585;52.530;7.320;2023-05-07T04:04:34;18.95;;;16.95;;
11064;SDS011;5585;52.530;7.320;2023-05-07T04:07:01;17.83;;;16.00;;
11064;SDS011;5585;52.530;7.320;2023-05-07T04:09:28;19.65;;;17.55;;
11064;SDS011;5585;52.530;7.320;2023-05-07T04:11:54;19.63;;;17.48;;
11064;SDS011;5585;52.530;7.320;2023-05-07T04:14:22;20.07;;;16.77;;
11064;SDS011;5585;52.530;7.320;2023-05-07T04:16:49;19.20;;;17.13;;
11064;SDS011;5585;52.530;7.320;2023-05-07T04:19:15;18.83;;;16.45;;
11064;SDS011;5585;52.530;7.320;2023-05-07T04:21:42;19.25;;;16.50;;
11064;SDS011;5585;52.530;7.320;2023-05-07T04:24:09;19.35;;;17.27;;
11064;SDS011;5585;52.530;7.320;2023-05-07T04:26:36;19.10;;;16.80;;
11064;SDS011;5585;52.530;7.320;2023-05-07T04:29:02;18.90;;;16.85;;
11064;SDS011;5585;52.530;7.320;2023-05-07T04:31:30;18.65;;;16.63;;
11064;SDS011;5585;52.530;7.320;2023-05-07T04:33:56;19.10;;;16.60;;
11064;SDS011;5585;52.530;7.320;2023-05-07T04:36:23;18.77;;;16.77;;
11064;SDS011;5585;52.530;7.320;2023-05-07T04:38:52;17.55;;;15.65;;
11064;SDS011;5585;52.530;7.320;2023-05-07T04:41:19;17.10;;;15.30;;
11064;SDS011;5585;52.530;7.320;2023-05-07T04:43:45;18.07;;;16.17;;
11064;SDS011;5585;52.530;7.320;2023-05-07T04:46:12;20.57;;;17.00;;
11064;SDS011;5585;52.530;7.320;2023-05-07T04:48:40;19.98;;;17.50;;
11064;SDS011;5585;52.530;7.320;2023-05-07T04:51:06;19.17;;;17.17;;
11064;SDS011;5585;52.530;7.320;2023-05-07T04:53:33;19.17;;;16.60;;
11064;SDS011;5585;52.530;7.320;2023-05-07T04:56:00;18.80;;;16.60;;
11064;SDS011;5585;52.530;7.320;2023-05-07T04:58:26;19.97;;;17.77;;
11064;SDS011;5585;52.530;7.320;2023-05-07T05:00:56;18.55;;;16.55;;
11064;SDS011;5585;52.530;7.320;2023-05-07T05:03:23;19.75;;;16.58;;
11064;SDS011;5585;52.530;7.320;2023-05-07T05:05:50;19.25;;;17.25;;
11064;SDS011;5585;52.530;7.320;2023-05-07T05:08:17;20.67;;;18.35;;
11064;SDS011;5585;52.530;7.320;2023-05-07T05:10:44;20.40;;;17.75;;
11064;SDS011;5585;52.530;7.320;2023-05-07T05:13:10;19.73;;;17.63;;
11064;SDS011;5585;52.530;7.320;2023-05-07T05:15:37;19.60;;;17.08;;
11064;SDS011;5585;52.530;7.320;2023-05-07T05:18:04;19.50;;;17.47;;
11064;SDS011;5585;52.530;7.320;2023-05-07T05:20:30;22.88;;;19.02;;
11064;SDS011;5585;52.530;7.320;2023-05-07T05:22:58;21.67;;;18.80;;
11064;SDS011;5585;52.530;7.320;2023-05-07T05:25:25;22.33;;;20.00;;
11064;SDS011;5585;52.530;7.320;2023-05-07T05:27:52;23.60;;;20.55;;
11064;SDS011;5585;52.530;7.320;2023-05-07T05:30:19;22.08;;;19.45;;
11064;SDS011;5585;52.530;7.320;2023-05-07T05:32:45;22.77;;;18.80;;
11064;SDS011;5585;52.530;7.320;2023-05-07T05:35:12;23.83;;;19.40;;
11064;SDS011;5585;52.530;7.320;2023-05-07T05:37:38;24.53;;;19.83;;
11064;SDS011;5585;52.530;7.320;2023-05-07T05:40:07;23.65;;;20.90;;
11064;SDS011;5585;52.530;7.320;2023-05-07T05:42:34;22.80;;;20.33;;
11064;SDS011;5585;52.530;7.320;2023-05-07T05:45:00;24.45;;;20.38;;
11064;SDS011;5585;52.530;7.320;2023-05-07T05:47:27;22.80;;;20.10;;
11064;SDS011;5585;52.530;7.320;2023-05-07T05:49:53;21.42;;;18.90;;
11064;SDS011;5585;52.530;7.320;2023-05-07T05:52:20;24.48;;;20.63;;
11064;SDS011;5585;52.530;7.320;2023-05-07T05:54:48;21.40;;;18.80;;
11064;SDS011;5585;52.530;7.320;2023-05-07T05:57:16;25.07;;;20.13;;
11064;SDS011;5585;52.530;7.320;2023-05-07T05:59:43;23.53;;;20.30;;
11064;SDS011;5585;52.530;7.320;2023-05-07T06:02:10;28.52;;;22.02;;
11064;SDS011;5585;52.530;7.320;2023-05-07T06:04:36;25.90;;;20.95;;
11064;SDS011;5585;52.530;7.320;2023-05-07T06:07:02;27.38;;;21.98;;
11064;SDS011;5585;52.530;7.320;2023-05-07T06:09:29;26.20;;;21.60;;
11064;SDS011;5585;52.530;7.320;2023-05-07T06:11:55;25.35;;;22.00;;
11064;SDS011;5585;52.530;7.320;2023-05-07T06:14:23;26.77;;;22.07;;
11064;SDS011;5585;52.530;7.320;2023-05-07T06:16:50;25.10;;;21.00;;
11064;SDS011;5585;52.530;7.320;2023-05-07T06:19:16;26.65;;;21.23;;
11064;SDS011;5585;52.530;7.320;2023-05-07T06:21:48;24.88;;;21.88;;
11064;SDS011;5585;52.530;7.320;2023-05-07T06:24:14;26.00;;;21.65;;
11064;SDS011;5585;52.530;7.320;2023-05-07T06:26:41;27.40;;;23.27;;
11064;SDS011;5585;52.530;7.320;2023-05-07T06:29:07;26.88;;;22.15;;
11064;SDS011;5585;52.530;7.320;2023-05-07T06:31:35;26.05;;;20.48;;
11064;SDS011;5585;52.530;7.320;2023-05-07T06:34:01;21.00;;;18.43;;
11064;SDS011;5585;52.530;7.320;2023-05-07T06:36:28;22.63;;;19.38;;
11064;SDS011;5585;52.530;7.320;2023-05-07T06:38:54;23.45;;;19.75;;
11064;SDS011;5585;52.530;7.320;2023-05-07T06:41:21;23.10;;;20.55;;
11064;SDS011;5585;52.530;7.320;2023-05-07T06:43:48;26.33;;;22.30;;
11064;SDS011;5585;52.530;7.320;2023-05-07T06:46:14;27.83;;;22.50;;
11064;SDS011;5585;52.530;7.320;2023-05-07T06:48:42;25.23;;;21.25;;
11064;SDS011;5585;52.530;7.320;2023-05-07T06:51:09;25.40;;;21.58;;
11064;SDS011;5585;52.530;7.320;2023-05-07T06:53:35;24.90;;;21.13;;
11064;SDS011;5585;52.530;7.320;2023-05-07T06:56:02;27.05;;;22.70;;
11064;SDS011;5585;52.530;7.320;2023-05-07T06:58:28;23.83;;;20.75;;
11064;SDS011;5585;52.530;7.320;2023-05-07T07:00:55;26.92;;;21.85;;
11064;SDS011;5585;52.530;7.320;2023-05-07T07:03:21;27.60;;;21.55;;
11064;SDS011;5585;52.530;7.320;2023-05-07T07:05:50;24.85;;;21.02;;
11064;SDS011;5585;52.530;7.320;2023-05-07T07:08:17;25.83;;;21.33;;
11064;SDS011;5585;52.530;7.320;2023-05-07T07:10:43;24.42;;;21.70;;
11064;SDS011;5585;52.530;7.320;2023-05-07T07:13:10;25.10;;;20.85;;
11064;SDS011;5585;52.530;7.320;2023-05-07T07:15:36;25.73;;;20.83;;
11064;SDS011;5585;52.530;7.320;2023-05-07T07:18:03;21.15;;;18.90;;
11064;SDS011;5585;52.530;7.320;2023-05-07T07:20:32;24.30;;;19.98;;
11064;SDS011;5585;52.530;7.320;2023-05-07T07:23:00;28.33;;;21.98;;
11064;SDS011;5585;52.530;7.320;2023-05-07T07:25:26;26.77;;;21.92;;
11064;SDS011;5585;52.530;7.320;2023-05-07T07:27:53;22.58;;;20.10;;
11064;SDS011;5585;52.530;7.320;2023-05-07T07:30:19;23.25;;;19.17;;
11064;SDS011;5585;52.530;7.320;2023-05-07T07:32:46;23.88;;;20.25;;
11064;SDS011;5585;52.530;7.320;2023-05-07T07:35:13;25.17;;;21.13;;
11064;SDS011;5585;52.530;7.320;2023-05-07T07:37:39;23.30;;;20.02;;
11064;SDS011;5585;52.530;7.320;2023-05-07T07:40:08;25.33;;;20.77;;
11064;SDS011;5585;52.530;7.320;2023-05-07T07:42:34;26.25;;;20.17;;
11064;SDS011;5585;52.530;7.320;2023-05-07T07:45:01;23.13;;;19.70;;
11064;SDS011;5585;52.530;7.320;2023-05-07T07:47:28;24.00;;;19.23;;
11064;SDS011;5585;52.530;7.320;2023-05-07T07:49:54;23.60;;;19.83;;
11064;SDS011;5585;52.530;7.320;2023-05-07T07:52:21;24.63;;;20.27;;
11064;SDS011;5585;52.530;7.320;2023-05-07T07:54:47;23.75;;;20.42;;
11064;SDS011;5585;52.530;7.320;2023-05-07T07:57:15;25.33;;;19.45;;
11064;SDS011;5585;52.530;7.320;2023-05-07T07:59:42;20.45;;;17.98;;
11064;SDS011;5585;52.530;7.320;2023-05-07T08:02:09;21.58;;;18.90;;
11064;SDS011;5585;52.530;7.320;2023-05-07T08:04:35;21.45;;;19.10;;
11064;SDS011;5585;52.530;7.320;2023-05-07T08:07:02;22.60;;;19.38;;
11064;SDS011;5585;52.530;7.320;2023-05-07T08:09:29;21.33;;;19.08;;
11064;SDS011;5585;52.530;7.320;2023-05-07T08:11:55;21.05;;;18.48;;
11064;SDS011;5585;52.530;7.320;2023-05-07T08:14:23;23.55;;;20.15;;
11064;SDS011;5585;52.530;7.320;2023-05-07T08:16:50;22.27;;;18.73;;
11064;SDS011;5585;52.530;7.320;2023-05-07T08:19:16;21.58;;;18.73;;
11064;SDS011;5585;52.530;7.320;2023-05-07T08:21:43;19.25;;;17.25;;
11064;SDS011;5585;52.530;7.320;2023-05-07T08:24:09;18.92;;;16.92;;
11064;SDS011;5585;52.530;7.320;2023-05-07T08:26:36;20.13;;;17.23;;
11064;SDS011;5585;52.530;7.320;2023-05-07T08:29:04;19.27;;;16.95;;
11064;SDS011;5585;52.530;7.320;2023-05-07T08:31:32;19.77;;;17.67;;
11064;SDS011;5585;52.530;7.320;2023-05-07T08:33:58;18.70;;;16.52;;
11064;SDS011;5585;52.530;7.320;2023-05-07T08:36:25;16.38;;;14.77;;
11064;SDS011;5585;52.530;7.320;2023-05-07T08:38:52;20.83;;;17.85;;
11064;SDS011;5585;52.530;7.320;2023-05-07T08:41:18;20.42;;;17.70;;
11064;SDS011;5585;52.530;7.320;2023-05-07T08:43:46;20.23;;;18.10;;
11064;SDS011;5585;52.530;7.320;2023-05-07T08:46:15;21.00;;;17.95;;
11064;SDS011;5585;52.530;7.320;2023-05-07T08:48:44;17.65;;;15.00;;
11064;SDS011;5585;52.530;7.320;2023-05-07T08:51:12;16.67;;;14.98;;
11064;SDS011;5585;52.530;7.320;2023-05-07T08:53:39;16.58;;;14.68;;
11064;SDS011;5585;52.530;7.320;2023-05-07T08:56:06;19.27;;;16.63;;
11064;SDS011;5585;52.530;7.320;2023-05-07T08:58:33;17.65;;;15.85;;
11064;SDS011;5585;52.530;7.320;2023-05-07T09:01:00;18.92;;;16.77;;
11064;SDS011;5585;52.530;7.320;2023-05-07T09:03:27;18.35;;;16.45;;
11064;SDS011;5585;52.530;7.320;2023-05-07T09:05:55;17.42;;;15.63;;
11064;SDS011;5585;52.530;7.320;2023-05-07T09:08:24;16.98;;;14.77;;
11064;SDS011;5585;52.530;7.320;2023-05-07T09:10:51;16.85;;;15.10;;
11064;SDS011;5585;52.530;7.320;2023-05-07T09:13:18;18.60;;;15.63;;
11064;SDS011;5585;52.530;7.320;2023-05-07T09:15:44;17.58;;;15.77;;
11064;SDS011;5585;52.530;7.320;2023-05-07T09:18:11;16.90;;;15.07;;
11064;SDS011;5585;52.530;7.320;2023-05-07T09:20:38;19.13;;;16.63;;
11064;SDS011;5585;52.530;7.320;2023-05-07T09:23:07;17.27;;;15.30;;
11064;SDS011;5585;52.530;7.320;2023-05-07T09:25:34;16.42;;;14.10;;
11064;SDS011;5585;52.530;7.320;2023-05-07T09:28:01;15.32;;;13.80;;
11064;SDS011;5585;52.530;7.320;2023-05-07T09:30:28;18.55;;;16.55;;
11064;SDS011;5585;52.530;7.320;2023-05-07T09:32:56;17.33;;;15.60;;
11064;SDS011;5585;52.530;7.320;2023-05-07T09:35:23;17.02;;;15.20;;
11064;SDS011;5585;52.530;7.320;2023-05-07T09:37:52;16.40;;;14.70;;
11064;SDS011;5585;52.530;7.320;2023-05-07T09:40:22;17.80;;;16.00;;
11064;SDS011;5585;52.530;7.320;2023-05-07T09:42:49;17.15;;;15.40;;
11064;SDS011;5585;52.530;7.320;2023-05-07T09:45:15;15.88;;;14.15;;
11064;SDS011;5585;52.530;7.320;2023-05-07T09:47:42;16.13;;;14.45;;
11064;SDS011;5585;52.530;7.320;2023-05-07T09:50:10;17.10;;;15.32;;
11064;SDS011;5585;52.530;7.320;2023-05-07T09:52:38;15.07;;;13.57;;
11064;SDS011;5585;52.530;7.320;2023-05-07T09:55:05;15.45;;;13.85;;
11064;SDS011;5585;52.530;7.320;2023-05-07T09:57:34;16.75;;;15.05;;
11064;SDS011;5585;52.530;7.320;2023-05-07T10:00:02;15.90;;;14.35;;
11064;SDS011;5585;52.530;7.320;2023-05-07T10:02:30;17.92;;;16.13;;
11064;SDS011;5585;52.530;7.320;2023-05-07T10:04:57;16.63;;;14.93;;
11064;SDS011;5585;52.530;7.320;2023-05-07T10:07:25;16.73;;;15.02;;
11064;SDS011;5585;52.530;7.320;2023-05-07T10:09:52;15.07;;;13.48;;
11064;SDS011;5585;52.530;7.320;2023-05-07T10:12:19;13.70;;;12.40;;
11064;SDS011;5585;52.530;7.320;2023-05-07T10:14:47;16.58;;;14.88;;
11064;SDS011;5585;52.530;7.320;2023-05-07T10:17:15;17.13;;;15.23;;
11064;SDS011;5585;52.530;7.320;2023-05-07T10:19:42;15.35;;;13.75;;
11064;SDS011;5585;52.530;7.320;2023-05-07T10:22:10;14.57;;;13.07;;
11064;SDS011;5585;52.530;7.320;2023-05-07T10:24:37;16.50;;;14.80;;
11064;SDS011;5585;52.530;7.320;2023-05-07T10:27:04;15.70;;;14.00;;
11064;SDS011;5585;52.530;7.320;2023-05-07T10:29:33;15.73;;;14.13;;
11064;SDS011;5585;52.530;7.320;2023-05-07T10:32:07;14.02;;;12.63;;
11064;SDS011;5585;52.530;7.320;2023-05-07T10:34:39;15.98;;;14.38;;
11064;SDS011;5585;52.530;7.320;2023-05-07T10:37:06;14.55;;;13.05;;
11064;SDS011;5585;52.530;7.320;2023-05-07T10:39:34;14.50;;;12.95;;
11064;SDS011;5585;52.530;7.320;2023-05-07T10:42:09;16.27;;;14.57;;
11064;SDS011;5585;52.530;7.320;2023-05-07T10:44:36;15.43;;;13.93;;
11064;SDS011;5585;52.530;7.320;2023-05-07T10:47:04;14.45;;;13.05;;
11064;SDS011;5585;52.530;7.320;2023-05-07T10:49:32;17.13;;;15.32;;
11064;SDS011;5585;52.530;7.320;2023-05-07T10:52:11;15.90;;;14.30;;
11064;SDS011;5585;52.530;7.320;2023-05-07T10:54:38;14.50;;;13.07;;
11064;SDS011;5585;52.530;7.320;2023-05-07T10:59:46;15.43;;;13.82;;
11064;SDS011;5585;52.530;7.320;2023-05-07T11:02:12;14.75;;;13.25;;
11064;SDS011;5585;52.530;7.320;2023-05-07T11:04:41;15.18;;;13.55;;
11064;SDS011;5585;52.530;7.320;2023-05-07T11:07:18;14.98;;;13.43;;
11064;SDS011;5585;52.530;7.320;2023-05-07T11:09:57;14.70;;;13.20;;
11064;SDS011;5585;52.530;7.320;2023-05-07T11:15:11;13.40;;;11.90;;
11064;SDS011;5585;52.530;7.320;2023-05-07T11:17:52;14.70;;;12.85;;
11064;SDS011;5585;52.530;7.320;2023-05-07T11:20:20;13.45;;;12.05;;
11064;SDS011;5585;52.530;7.320;2023-05-07T11:22:47;14.23;;;12.68;;
11064;SDS011;5585;52.530;7.320;2023-05-07T11:25:17;14.00;;;12.60;;
11064;SDS011;5585;52.530;7.320;2023-05-07T11:27:44;16.45;;;13.68;;
11064;SDS011;5585;52.530;7.320;2023-05-07T11:30:11;12.60;;;11.35;;
11064;SDS011;5585;52.530;7.320;2023-05-07T11:32:42;14.40;;;13.00;;
11064;SDS011;5585;52.530;7.320;2023-05-07T11:35:09;14.07;;;12.60;;
11064;SDS011;5585;52.530;7.320;2023-05-07T11:37:37;14.30;;;12.80;;
11064;SDS011;5585;52.530;7.320;2023-05-07T11:40:05;13.35;;;12.05;;
11064;SDS011;5585;52.530;7.320;2023-05-07T11:42:33;14.27;;;12.77;;
11064;SDS011;5585;52.530;7.320;2023-05-07T11:45:00;13.48;;;12.07;;
11064;SDS011;5585;52.530;7.320;2023-05-07T11:47:26;11.13;;;10.05;;
11064;SDS011;5585;52.530;7.320;2023-05-07T11:49:55;13.05;;;11.82;;
11064;SDS011;5585;52.530;7.320;2023-05-07T11:52:23;11.88;;;10.77;;
11064;SDS011;5585;52.530;7.320;2023-05-07T11:54:52;12.35;;;11.15;;
11064;SDS011;5585;52.530;7.320;2023-05-07T11:57:19;11.52;;;10.25;;
11064;SDS011;5585;52.530;7.320;2023-05-07T11:59:46;11.48;;;10.35;;
11064;SDS011;5585;52.530;7.320;2023-05-07T12:02:13;12.88;;;11.52;;
11064;SDS011;5585;52.530;7.320;2023-05-07T12:04:40;11.10;;;9.75;;
11064;SDS011;5585;52.530;7.320;2023-05-07T12:07:10;13.10;;;10.88;;
11064;SDS011;5585;52.530;7.320;2023-05-07T12:09:37;11.77;;;10.60;;
11064;SDS011;5585;52.530;7.320;2023-05-07T12:12:05;12.82;;;11.52;;
11064;SDS011;5585;52.530;7.320;2023-05-07T12:14:31;11.35;;;10.25;;
11064;SDS011;5585;52.530;7.320;2023-05-07T12:16:58;10.73;;;9.73;;
11064;SDS011;5585;52.530;7.320;2023-05-07T12:19:27;12.70;;;11.40;;
11064;SDS011;5585;52.530;7.320;2023-05-07T12:21:54;11.05;;;9.95;;
11064;SDS011;5585;52.530;7.320;2023-05-07T12:24:21;10.05;;;9.05;;
11064;SDS011;5585;52.530;7.320;2023-05-07T12:26:48;10.38;;;9.27;;
11064;SDS011;5585;52.530;7.320;2023-05-07T12:29:16;10.00;;;9.00;;
11064;SDS011;5585;52.530;7.320;2023-05-07T12:31:42;8.98;;;8.18;;
11064;SDS011;5585;52.530;7.320;2023-05-07T12:34:10;9.43;;;8.57;;
11064;SDS011;5585;52.530;7.320;2023-05-07T12:36:37;9.23;;;8.30;;
11064;SDS011;5585;52.530;7.320;2023-05-07T12:39:04;9.10;;;8.20;;
11064;SDS011;5585;52.530;7.320;2023-05-07T12:41:31;9.40;;;8.50;;
11064;SDS011;5585;52.530;7.320;2023-05-07T12:44:03;9.75;;;8.60;;
11064;SDS011;5585;52.530;7.320;2023-05-07T12:46:31;10.95;;;8.48;;
11064;SDS011;5585;52.530;7.320;2023-05-07T12:48:58;9.15;;;8.25;;
11064;SDS011;5585;52.530;7.320;2023-05-07T12:51:24;8.55;;;7.75;;
11064;SDS011;5585;52.530;7.320;2023-05-07T12:53:51;9.60;;;8.65;;
11064;SDS011;5585;52.530;7.320;2023-05-07T12:56:21;9.20;;;8.30;;
11064;SDS011;5585;52.530;7.320;2023-05-07T12:58:49;8.65;;;7.85;;
11064;SDS011;5585;52.530;7.320;2023-05-07T13:01:15;9.63;;;8.57;;
11064;SDS011;5585;52.530;7.320;2023-05-07T13:03:47;9.77;;;8.77;;
11064;SDS011;5585;52.530;7.320;2023-05-07T13:06:14;9.40;;;8.50;;
11064;SDS011;5585;52.530;7.320;2023-05-07T13:08:41;9.48;;;8.52;;
11064;SDS011;5585;52.530;7.320;2023-05-07T13:11:08;10.20;;;9.20;;
11064;SDS011;5585;52.530;7.320;2023-05-07T13:13:35;9.50;;;8.60;;
11064;SDS011;5585;52.530;7.320;2023-05-07T13:16:02;8.43;;;7.63;;
11064;SDS011;5585;52.530;7.320;2023-05-07T13:18:29;8.35;;;6.97;;
11064;SDS011;5585;52.530;7.320;2023-05-07T13:20:58;8.65;;;7.78;;
11064;SDS011;5585;52.530;7.320;2023-05-07T13:23:25;7.15;;;6.45;;
11064;SDS011;5585;52.530;7.320;2023-05-07T13:25:51;8.30;;;7.50;;
11064;SDS011;5585;52.530;7.320;2023-05-07T13:28:19;6.82;;;6.00;;
11064;SDS011;5585;52.530;7.320;2023-05-07T13:30:45;7.63;;;6.63;;
11064;SDS011;5585;52.530;7.320;2023-05-07T13:33:12;7.40;;;6.70;;
11064;SDS011;5585;52.530;7.320;2023-05-07T13:35:39;8.27;;;7.47;;
11064;SDS011;5585;52.530;7.320;2023-05-07T13:38:06;8.15;;;7.43;;
11064;SDS011;5585;52.530;7.320;2023-05-07T13:40:33;8.80;;;7.85;;
11064;SDS011;5585;52.530;7.320;2023-05-07T13:43:00;8.15;;;7.35;;
11064;SDS011;5585;52.530;7.320;2023-05-07T13:45:27;7.30;;;6.60;;
11064;SDS011;5585;52.530;7.320;2023-05-07T13:47:54;9.02;;;7.10;;
11064;SDS011;5585;52.530;7.320;2023-05-07T13:50:21;8.00;;;7.30;;
11064;SDS011;5585;52.530;7.320;2023-05-07T13:52:47;7.15;;;6.43;;
11064;SDS011;5585;52.530;7.320;2023-05-07T13:55:17;8.32;;;7.53;;
11064;SDS011;5585;52.530;7.320;2023-05-07T13:57:43;6.45;;;5.88;;
11064;SDS011;5585;52.530;7.320;2023-05-07T14:00:11;7.60;;;6.78;;
11064;SDS011;5585;52.530;7.320;2023-05-07T14:02:37;7.88;;;7.10;;
11064;SDS011;5585;52.530;7.320;2023-05-07T14:05:04;7.03;;;6.35;;
11064;SDS011;5585;52.530;7.320;2023-05-07T14:07:30;7.05;;;6.38;;
11064;SDS011;5585;52.530;7.320;2023-05-07T14:09:57;8.45;;;7.40;;
11064;SDS011;5585;52.530;7.320;2023-05-07T14:12:25;7.28;;;6.57;;
11064;SDS011;5585;52.530;7.320;2023-05-07T14:14:51;7.65;;;6.95;;
11064;SDS011;5585;52.530;7.320;2023-05-07T14:17:18;6.43;;;5.90;;
11064;SDS011;5585;52.530;7.320;2023-05-07T14:19:45;6.85;;;6.25;;
11064;SDS011;5585;52.530;7.320;2023-05-07T14:22:12;8.15;;;5.75;;
11064;SDS011;5585;52.530;7.320;2023-05-07T14:24:39;8.15;;;6.72;;
11064;SDS011;5585;52.530;7.320;2023-05-07T14:27:06;7.50;;;6.78;;
11064;SDS011;5585;52.530;7.320;2023-05-07T14:29:33;7.05;;;6.35;;
11064;SDS011;5585;52.530;7.320;2023-05-07T14:32:01;6.93;;;6.22;;
11064;SDS011;5585;52.530;7.320;2023-05-07T14:34:28;6.65;;;6.05;;
11064;SDS011;5585;52.530;7.320;2023-05-07T14:36:54;5.88;;;5.28;;
11064;SDS011;5585;52.530;7.320;2023-05-07T14:39:21;6.10;;;5.50;;
11064;SDS011;5585;52.530;7.320;2023-05-07T14:41:48;7.43;;;6.70;;
11064;SDS011;5585;52.530;7.320;2023-05-07T14:44:14;6.90;;;6.30;;